Time;durP1;ratioP1;P1;durP2;ratioP2;P2;SDS_P1;SDS_P2;PMS_P1;PMS_P2;Temp;Humidity;BMP_temperature;BMP_pressure;BME280_temperature;BME280_humidity;BME280_pressure;Samples;Min_cycle;Max_cycle;Signal;HPM_P1;HPM_P2
2023/04/06 00:00:08;;;;;;;;;;;6.70;97.50;;;;;;5094530;28;19908;-71
2023/04/06 00:02:34;;;;;;;;;;;6.70;97.50;;;;;;5093369;28;19973;-71
2023/04/06 00:05:00;;;;;;;;;;;6.70;97.70;;;;;;5094298;28;20331;-71
2023/04/06 00:07:27;;;;;;;;;;;6.60;97.70;;;;;;5093212;28;19967;-72
2023/04/06 00:09:53;;;;;;;;;;;6.50;97.90;;;;;;5092967;28;19962;-71
2023/04/06 00:12:19;;;;;;;;;;;6.50;98.00;;;;;;5093518;28;19912;-72
2023/04/06 00:14:44;;;;;;;;;;;6.60;98.00;;;;;;5092272;28;19916;-71
2023/04/06 00:17:11;;;;;;;;;;;6.50;98.00;;;;;;5093363;28;20358;-71
2023/04/06 00:19:36;;;;;;;;;;;6.50;98.10;;;;;;5094473;28;19908;-71
2023/04/06 00:22:02;;;;;;;;;;;6.50;98.00;;;;;;5093015;28;19915;-71
2023/04/06 00:24:28;;;;;;;;;;;6.50;98.00;;;;;;5093867;28;20320;-71
2023/04/06 00:26:55;;;;;;;;;;;6.50;98.10;;;;;;5094680;28;19965;-72
2023/04/06 00:29:20;;;;;;;;;;;6.50;98.10;;;;;;5094409;28;19908;-71
2023/04/06 00:31:46;;;;;;;;;;;6.50;98.10;;;;;;5094069;28;19939;-71
2023/04/06 00:34:12;;;;;;;;;;;6.50;98.20;;;;;;5091879;28;19923;-72
2023/04/06 00:36:40;;;;;;;;;;;6.50;98.30;;;;;;5094132;28;19915;-71
2023/04/06 00:39:06;;;;;;;;;;;6.50;98.40;;;;;;5092687;28;19999;-72
2023/04/06 00:41:32;;;;;;;;;;;6.40;98.50;;;;;;5094189;28;20383;-72
2023/04/06 00:43:58;;;;;;;;;;;6.50;98.40;;;;;;5093721;28;20258;-71
2023/04/06 00:46:23;;;;;;;;;;;6.50;98.30;;;;;;5092842;28;19920;-71
2023/04/06 00:48:49;;;;;;;;;;;6.50;98.40;;;;;;5094215;28;19912;-71
2023/04/06 00:51:15;;;;;;;;;;;6.50;98.40;;;;;;5093931;28;19908;-72
2023/04/06 00:53:41;;;;;;;;;;;6.50;98.40;;;;;;5092101;28;19908;-72
2023/04/06 00:56:09;;;;;;;;;;;6.50;98.50;;;;;;5093806;28;20019;-71
2023/04/06 00:58:37;;;;;;;;;;;6.50;98.60;;;;;;5093755;28;19909;-73
2023/04/06 01:01:03;;;;;;;;;;;6.50;98.80;;;;;;5094364;28;19958;-72
2023/04/06 01:03:32;;;;;;;;;;;6.50;98.90;;;;;;5095549;28;20002;-73
2023/04/06 01:05:58;;;;;;;;;;;6.50;98.80;;;;;;5094014;28;19912;-71
2023/04/06 01:08:24;;;;;;;;;;;6.50;98.80;;;;;;5095203;28;19916;-72
2023/04/06 01:10:50;;;;;;;;;;;6.50;98.90;;;;;;5095063;28;19916;-71
2023/04/06 01:13:16;;;;;;;;;;;6.50;99.10;;;;;;5092109;28;20289;-72
2023/04/06 01:15:42;;;;;;;;;;;6.50;99.20;;;;;;5093055;28;20338;-72
2023/04/06 01:18:10;;;;;;;;;;;6.50;99.30;;;;;;5092512;28;19958;-72
2023/04/06 01:20:36;;;;;;;;;;;6.40;99.10;;;;;;5092832;28;19908;-71
2023/04/06 01:23:01;;;;;;;;;;;6.30;99.30;;;;;;5094511;28;19923;-71
2023/04/06 01:25:27;;;;;;;;;;;6.30;99.50;;;;;;5097030;28;19938;-71
2023/04/06 01:27:53;;;;;;;;;;;6.30;99.40;;;;;;5098942;28;19908;-71
2023/04/06 01:30:19;;;;;;;;;;;6.30;99.60;;;;;;5097820;28;19957;-71
2023/04/06 01:32:45;;;;;;;;;;;6.30;99.60;;;;;;5097784;28;20397;-71
2023/04/06 01:35:10;;;;;;;;;;;6.30;99.80;;;;;;5096802;28;19909;-71
2023/04/06 01:37:36;;;;;;;;;;;6.30;99.70;;;;;;5096913;28;19908;-72
2023/04/06 01:40:02;;;;;;;;;;;6.30;99.60;;;;;;5095601;28;20053;-74
2023/04/06 01:42:28;;;;;;;;;;;6.20;99.80;;;;;;5098031;28;19912;-76
2023/04/06 01:44:54;;;;;;;;;;;6.20;99.80;;;;;;5097508;28;19916;-74
2023/04/06 01:47:20;;;;;;;;;;;6.20;99.90;;;;;;5097967;28;19912;-74
2023/04/06 01:49:45;;;;;;;;;;;6.20;99.90;;;;;;5096531;28;19931;-73
2023/04/06 01:52:11;;;;;;;;;;;6.20;99.90;;;;;;5095906;28;19976;-74
2023/04/06 01:54:36;;;;;;;;;;;6.20;99.90;;;;;;5095456;28;20330;-73
2023/04/06 01:57:02;;;;;;;;;;;6.20;99.90;;;;;;5097916;28;19908;-74
2023/04/06 01:59:28;;;;;;;;;;;6.20;99.90;;;;;;5096026;28;20374;-76
2023/04/06 02:01:53;;;;;;;;;;;6.20;99.90;;;;;;5097721;28;20003;-77
2023/04/06 02:04:19;;;;;;;;;;;6.20;99.90;;;;;;5095637;28;20359;-73
2023/04/06 02:06:45;;;;;;;;;;;6.20;99.90;;;;;;5096892;28;19908;-74
2023/04/06 02:09:11;;;;;;;;;;;6.20;99.90;;;;;;5097099;28;20113;-74
2023/04/06 02:11:37;;;;;;;;;;;6.20;99.90;;;;;;5097016;28;19912;-74
2023/04/06 02:14:02;;;;;;;;;;;6.20;99.90;;;;;;5096905;28;19915;-74
2023/04/06 02:16:28;;;;;;;;;;;6.30;99.90;;;;;;5096417;28;19909;-75
2023/04/06 02:18:54;;;;;;;;;;;6.20;99.90;;;;;;5096357;28;20316;-73
2023/04/06 02:21:20;;;;;;;;;;;6.20;99.90;;;;;;5096360;28;19912;-74
2023/04/06 02:23:46;;;;;;;;;;;6.20;99.90;;;;;;5096930;28;19935;-74
2023/04/06 02:26:12;;;;;;;;;;;6.20;99.90;;;;;;5095730;28;19912;-72
2023/04/06 02:28:38;;;;;;;;;;;6.20;99.90;;;;;;5096075;28;20410;-75
2023/04/06 02:31:04;;;;;;;;;;;6.30;99.90;;;;;;5095753;28;20018;-74
2023/04/06 02:33:30;;;;;;;;;;;6.20;99.90;;;;;;5096132;28;19992;-73
2023/04/06 02:35:55;;;;;;;;;;;6.20;99.90;;;;;;5096598;28;20378;-77
2023/04/06 02:38:21;;;;;;;;;;;6.20;99.90;;;;;;5096500;28;19908;-74
2023/04/06 02:40:47;;;;;;;;;;;6.10;99.90;;;;;;5096748;28;19908;-74
2023/04/06 02:43:12;;;;;;;;;;;6.10;99.90;;;;;;5096196;28;19908;-73
2023/04/06 02:45:38;;;;;;;;;;;6.10;99.90;;;;;;5094729;28;19916;-74
2023/04/06 02:48:04;;;;;;;;;;;6.10;99.90;;;;;;5095416;28;19908;-75
2023/04/06 02:50:30;;;;;;;;;;;6.10;99.90;;;;;;5096324;28;19937;-74
2023/04/06 02:52:55;;;;;;;;;;;6.20;99.90;;;;;;5095929;28;19973;-73
2023/04/06 02:55:21;;;;;;;;;;;6.20;99.80;;;;;;5095601;28;19920;-74
2023/04/06 02:57:47;;;;;;;;;;;6.10;99.90;;;;;;5095859;28;19908;-75
2023/04/06 03:00:13;;;;;;;;;;;6.10;99.90;;;;;;5095795;28;19919;-74
2023/04/06 03:02:38;;;;;;;;;;;6.10;99.90;;;;;;5094366;28;19908;-74
2023/04/06 03:05:04;;;;;;;;;;;6.10;99.90;;;;;;5094064;28;19922;-74
2023/04/06 03:07:30;;;;;;;;;;;6.10;99.80;;;;;;5095869;28;19908;-76
2023/04/06 03:09:56;;;;;;;;;;;6.10;99.90;;;;;;5096014;28;19914;-73
2023/04/06 03:12:21;;;;;;;;;;;6.10;99.80;;;;;;5095722;28;20301;-74
2023/04/06 03:14:47;;;;;;;;;;;6.00;99.90;;;;;;5093964;28;19969;-74
2023/04/06 03:17:13;;;;;;;;;;;6.00;99.90;;;;;;5095643;28;20388;-74
2023/04/06 03:19:38;;;;;;;;;;;5.90;99.90;;;;;;5095585;28;19915;-73
2023/04/06 03:22:04;;;;;;;;;;;5.90;99.90;;;;;;5095753;28;20438;-73
2023/04/06 03:24:30;;;;;;;;;;;5.80;99.90;;;;;;5092651;28;19941;-73
2023/04/06 03:26:56;;;;;;;;;;;5.80;99.90;;;;;;5092841;28;19914;-74
2023/04/06 03:29:22;;;;;;;;;;;5.80;99.90;;;;;;5093584;28;20124;-74
2023/04/06 03:31:47;;;;;;;;;;;5.80;99.90;;;;;;5093738;28;19908;-75
2023/04/06 03:34:13;;;;;;;;;;;5.80;99.90;;;;;;5093116;28;19995;-74
2023/04/06 03:36:39;;;;;;;;;;;5.80;99.90;;;;;;5094676;28;19995;-74
2023/04/06 03:39:05;;;;;;;;;;;5.90;99.90;;;;;;5094686;28;19942;-73
2023/04/06 03:41:31;;;;;;;;;;;5.80;99.90;;;;;;5094026;28;19986;-75
2023/04/06 03:43:56;;;;;;;;;;;5.80;99.90;;;;;;5094801;28;19908;-75
2023/04/06 03:46:22;;;;;;;;;;;5.80;99.90;;;;;;5093596;28;19973;-74
2023/04/06 03:48:48;;;;;;;;;;;5.80;99.90;;;;;;5094462;28;20413;-73
2023/04/06 03:51:14;;;;;;;;;;;5.80;99.90;;;;;;5094509;28;19915;-73
2023/04/06 03:53:40;;;;;;;;;;;5.70;99.90;;;;;;5093355;28;19908;-74
2023/04/06 03:56:05;;;;;;;;;;;5.70;99.90;;;;;;5094031;28;20381;-73
2023/04/06 03:58:31;;;;;;;;;;;5.70;99.90;;;;;;5091709;28;19908;-73
2023/04/06 04:00:57;;;;;;;;;;;5.70;99.90;;;;;;5094069;28;19915;-72
2023/04/06 04:03:27;;;;;;;;;;;5.70;99.90;;;;;;5092779;28;19908;-73
2023/04/06 04:05:53;;;;;;;;;;;5.70;99.90;;;;;;5093613;28;19912;-73
2023/04/06 04:08:19;;;;;;;;;;;5.80;99.90;;;;;;5093632;28;19912;-72
2023/04/06 04:10:45;;;;;;;;;;;5.80;99.90;;;;;;5093799;28;19908;-73
2023/04/06 04:13:10;;;;;;;;;;;5.70;99.90;;;;;;5092775;28;19982;-72
2023/04/06 04:15:36;;;;;;;;;;;5.70;99.90;;;;;;5092268;28;20388;-73
2023/04/06 04:18:02;;;;;;;;;;;5.70;99.90;;;;;;5092912;28;19915;-73
2023/04/06 04:20:28;;;;;;;;;;;5.70;99.90;;;;;;5094002;28;19915;-73
2023/04/06 04:22:54;;;;;;;;;;;5.70;99.90;;;;;;5094551;28;20315;-73
2023/04/06 04:25:20;;;;;;;;;;;5.70;99.90;;;;;;5093098;28;19920;-74
2023/04/06 04:27:45;;;;;;;;;;;5.70;99.90;;;;;;5094769;28;19943;-73
2023/04/06 04:30:11;;;;;;;;;;;5.70;99.90;;;;;;5092936;28;19908;-71
2023/04/06 04:32:37;;;;;;;;;;;5.80;99.90;;;;;;5094744;28;19915;-73
2023/04/06 04:35:02;;;;;;;;;;;5.70;99.90;;;;;;5093904;28;19908;-73
2023/04/06 04:37:28;;;;;;;;;;;5.60;99.90;;;;;;5092954;28;19934;-73
2023/04/06 04:39:54;;;;;;;;;;;5.70;99.90;;;;;;5094627;28;19979;-72
2023/04/06 04:42:20;;;;;;;;;;;5.60;99.90;;;;;;5094623;28;19943;-72
2023/04/06 04:44:45;;;;;;;;;;;5.60;99.90;;;;;;5093861;28;19934;-73
2023/04/06 04:47:11;;;;;;;;;;;5.60;99.90;;;;;;5094477;28;20370;-74
2023/04/06 04:49:37;;;;;;;;;;;5.60;99.90;;;;;;5093370;28;19908;-73
2023/04/06 04:52:02;;;;;;;;;;;5.70;99.90;;;;;;5094160;28;19908;-73
2023/04/06 04:54:28;;;;;;;;;;;5.70;99.90;;;;;;5092732;28;19981;-77
2023/04/06 04:56:54;;;;;;;;;;;5.80;99.90;;;;;;5094653;28;19923;-72
2023/04/06 04:59:19;;;;;;;;;;;5.80;99.90;;;;;;5097055;28;19943;-73
2023/04/06 05:01:45;;;;;;;;;;;5.70;99.90;;;;;;5095393;28;19908;-72
2023/04/06 05:04:11;;;;;;;;;;;5.70;99.90;;;;;;5094479;28;20277;-72
2023/04/06 05:06:36;;;;;;;;;;;5.80;99.90;;;;;;5098262;28;19934;-73
2023/04/06 05:09:02;;;;;;;;;;;5.70;99.90;;;;;;5097795;28;19915;-73
2023/04/06 05:11:28;;;;;;;;;;;5.80;99.90;;;;;;5096603;28;19965;-73
2023/04/06 05:13:54;;;;;;;;;;;5.70;99.90;;;;;;5096237;28;20002;-73
2023/04/06 05:16:20;;;;;;;;;;;5.80;99.90;;;;;;5096466;28;20016;-74
2023/04/06 05:18:47;;;;;;;;;;;5.80;99.90;;;;;;5097928;28;19915;-76
2023/04/06 05:21:12;;;;;;;;;;;5.80;99.90;;;;;;5097822;28;19935;-73
2023/04/06 05:23:38;;;;;;;;;;;5.90;99.90;;;;;;5095681;28;19993;-75
2023/04/06 05:26:04;;;;;;;;;;;5.90;99.90;;;;;;5096214;28;20366;-74
2023/04/06 05:28:30;;;;;;;;;;;5.90;99.90;;;;;;5097253;28;19909;-75
2023/04/06 05:30:56;;;;;;;;;;;5.90;99.90;;;;;;5096989;28;19914;-73
2023/04/06 05:33:22;;;;;;;;;;;5.90;99.70;;;;;;5097542;28;20358;-75
2023/04/06 05:35:48;;;;;;;;;;;6.00;99.90;;;;;;5095938;28;19915;-72
2023/04/06 05:38:14;;;;;;;;;;;6.00;99.90;;;;;;5096645;28;20248;-71
2023/04/06 05:40:40;;;;;;;;;;;6.00;99.70;;;;;;5094732;28;19912;-72
2023/04/06 05:43:06;;;;;;;;;;;6.10;99.90;;;;;;5095828;28;19915;-72
2023/04/06 05:45:32;;;;;;;;;;;6.10;99.90;;;;;;5095320;28;19916;-72
2023/04/06 05:47:58;;;;;;;;;;;6.00;99.90;;;;;;5095585;28;19912;-72
2023/04/06 05:50:23;;;;;;;;;;;6.10;99.50;;;;;;5096098;28;19908;-73
2023/04/06 05:52:49;;;;;;;;;;;6.10;99.80;;;;;;5097805;28;19912;-73
2023/04/06 05:55:15;;;;;;;;;;;6.20;99.90;;;;;;5095995;28;20007;-73
2023/04/06 05:57:40;;;;;;;;;;;6.30;99.90;;;;;;5097009;28;20401;-73
2023/04/06 06:00:08;;;;;;;;;;;6.40;99.30;;;;;;5097402;28;19914;-73
2023/04/06 06:02:34;;;;;;;;;;;6.50;98.90;;;;;;5097041;28;20271;-73
2023/04/06 06:05:00;;;;;;;;;;;6.50;98.90;;;;;;5096872;28;19919;-73
2023/04/06 06:07:25;;;;;;;;;;;6.60;99.00;;;;;;5095897;28;20015;-73
2023/04/06 06:09:51;;;;;;;;;;;6.70;98.70;;;;;;5094601;28;19915;-73
2023/04/06 06:12:16;;;;;;;;;;;6.70;98.80;;;;;;5097582;28;19908;-72
2023/04/06 06:14:42;;;;;;;;;;;6.80;99.30;;;;;;5096499;28;19982;-73
2023/04/06 06:17:08;;;;;;;;;;;6.90;98.40;;;;;;5097060;28;19968;-73
2023/04/06 06:19:34;;;;;;;;;;;7.00;98.80;;;;;;5095446;28;19916;-72
2023/04/06 06:22:02;;;;;;;;;;;7.00;98.50;;;;;;5096709;28;19958;-73
2023/04/06 06:24:27;;;;;;;;;;;7.20;99.80;;;;;;5095987;28;19916;-73
2023/04/06 06:26:53;;;;;;;;;;;7.30;99.90;;;;;;5096536;28;19916;-73
2023/04/06 06:29:19;;;;;;;;;;;7.50;99.90;;;;;;5096362;28;19912;-73
2023/04/06 06:31:45;;;;;;;;;;;7.80;99.90;;;;;;5095376;28;20389;-73
2023/04/06 06:34:12;;;;;;;;;;;7.90;99.90;;;;;;5096283;28;19908;-73
2023/04/06 06:36:38;;;;;;;;;;;8.10;99.80;;;;;;5096661;28;19952;-73
2023/04/06 06:39:04;;;;;;;;;;;8.30;99.90;;;;;;5095068;28;19912;-72
2023/04/06 06:41:29;;;;;;;;;;;8.20;98.20;;;;;;5094777;28;19912;-72
2023/04/06 06:43:55;;;;;;;;;;;8.40;98.70;;;;;;5094359;28;19931;-73
2023/04/06 06:46:21;;;;;;;;;;;8.50;99.90;;;;;;5095602;28;19952;-73
2023/04/06 06:48:46;;;;;;;;;;;8.70;99.90;;;;;;5095100;28;19908;-73
2023/04/06 06:51:12;;;;;;;;;;;8.70;99.90;;;;;;5096285;28;19961;-74
2023/04/06 06:53:37;;;;;;;;;;;8.70;99.90;;;;;;5094789;28;19912;-73
2023/04/06 06:56:03;;;;;;;;;;;9.00;99.90;;;;;;5095986;28;19908;-74
2023/04/06 06:58:29;;;;;;;;;;;9.00;99.30;;;;;;5095339;28;19947;-72
2023/04/06 07:00:58;;;;;;;;;;;8.90;99.90;;;;;;5094386;28;19909;-72
2023/04/06 07:03:24;;;;;;;;;;;8.80;99.30;;;;;;5096091;28;19909;-74
2023/04/06 07:05:52;;;;;;;;;;;8.80;99.00;;;;;;5095160;28;19938;-74
2023/04/06 07:08:22;;;;;;;;;;;8.60;97.70;;;;;;5095488;28;20000;-73
2023/04/06 07:10:48;;;;;;;;;;;8.60;97.30;;;;;;5093982;28;19916;-73
2023/04/06 07:13:20;;;;;;;;;;;8.50;97.30;;;;;;5093864;28;19916;-73
2023/04/06 07:15:46;;;;;;;;;;;8.50;97.30;;;;;;5095257;28;19915;-73
2023/04/06 07:18:11;;;;;;;;;;;8.50;97.30;;;;;;5094145;28;19908;-73
2023/04/06 07:20:37;;;;;;;;;;;8.50;97.40;;;;;;5096158;28;19943;-73
2023/04/06 07:23:03;;;;;;;;;;;8.60;97.50;;;;;;5095350;28;20065;-73
2023/04/06 07:25:29;;;;;;;;;;;8.70;97.30;;;;;;5094906;28;19912;-73
2023/04/06 07:27:55;;;;;;;;;;;8.80;97.20;;;;;;5094292;28;19915;-73
2023/04/06 07:30:21;;;;;;;;;;;8.80;97.30;;;;;;5094905;28;19908;-73
2023/04/06 07:32:47;;;;;;;;;;;8.90;97.60;;;;;;5094883;28;19962;-73
2023/04/06 07:35:13;;;;;;;;;;;8.90;97.00;;;;;;5094583;28;19908;-73
2023/04/06 07:37:39;;;;;;;;;;;9.00;96.90;;;;;;5094835;28;19909;-73
2023/04/06 07:40:05;;;;;;;;;;;9.10;96.80;;;;;;5095160;28;19915;-73
2023/04/06 07:42:32;;;;;;;;;;;9.10;96.50;;;;;;5093572;28;19915;-73
2023/04/06 07:44:58;;;;;;;;;;;9.10;96.30;;;;;;5095424;28;19916;-74
2023/04/06 07:47:24;;;;;;;;;;;9.10;96.70;;;;;;5093993;28;20132;-76
2023/04/06 07:49:49;;;;;;;;;;;9.10;96.70;;;;;;5093777;28;19912;-73
2023/04/06 07:52:15;;;;;;;;;;;9.20;96.80;;;;;;5094978;28;20396;-73
2023/04/06 07:54:41;;;;;;;;;;;9.30;96.90;;;;;;5092711;28;19915;-73
2023/04/06 07:57:07;;;;;;;;;;;9.40;97.10;;;;;;5092920;28;19908;-73
2023/04/06 07:59:32;;;;;;;;;;;9.40;96.70;;;;;;5094245;28;20366;-76
2023/04/06 08:01:58;;;;;;;;;;;9.50;96.80;;;;;;5094482;28;19915;-73
2023/04/06 08:04:24;;;;;;;;;;;9.60;96.40;;;;;;5093063;28;19912;-73
2023/04/06 08:06:49;;;;;;;;;;;9.60;96.40;;;;;;5094988;28;19912;-73
2023/04/06 08:09:15;;;;;;;;;;;9.70;96.90;;;;;;5093421;28;19994;-72
2023/04/06 08:11:41;;;;;;;;;;;9.80;96.70;;;;;;5094588;28;19909;-73
2023/04/06 08:14:07;;;;;;;;;;;9.90;96.40;;;;;;5094109;28;19912;-73
2023/04/06 08:16:32;;;;;;;;;;;9.90;96.40;;;;;;5094757;28;19947;-73
2023/04/06 08:18:58;;;;;;;;;;;10.00;96.60;;;;;;5094529;28;19912;-73
2023/04/06 08:21:24;;;;;;;;;;;10.20;97.60;;;;;;5093676;28;19909;-73
2023/04/06 08:23:50;;;;;;;;;;;10.30;96.60;;;;;;5092933;28;19932;-75
2023/04/06 08:26:15;;;;;;;;;;;10.30;96.60;;;;;;5093078;28;19915;-74
2023/04/06 08:28:41;;;;;;;;;;;10.40;95.90;;;;;;5093310;28;19973;-74
2023/04/06 08:31:07;;;;;;;;;;;10.40;95.70;;;;;;5093232;28;19957;-73
2023/04/06 08:33:35;;;;;;;;;;;10.40;95.90;;;;;;5095423;28;19912;-73
2023/04/06 08:36:08;;;;;;;;;;;10.50;95.80;;;;;;5094311;28;19916;-74
2023/04/06 08:38:34;;;;;;;;;;;10.50;95.80;;;;;;5093315;28;20026;-73
2023/04/06 08:41:00;;;;;;;;;;;10.60;95.40;;;;;;5093288;28;19908;-76
2023/04/06 08:43:27;;;;;;;;;;;10.60;95.20;;;;;;5094800;28;20007;-75
2023/04/06 08:45:53;;;;;;;;;;;10.60;95.30;;;;;;5094089;28;19912;-74
2023/04/06 08:48:18;;;;;;;;;;;10.70;95.00;;;;;;5093266;28;19914;-73
2023/04/06 08:50:44;;;;;;;;;;;10.70;94.80;;;;;;5093388;28;19916;-74
2023/04/06 08:53:11;;;;;;;;;;;10.80;94.70;;;;;;5094120;28;19908;-74
2023/04/06 08:55:37;;;;;;;;;;;10.70;94.30;;;;;;5092318;28;19947;-73
2023/04/06 08:58:03;;;;;;;;;;;10.50;94.40;;;;;;5093738;28;19908;-74
2023/04/06 09:00:29;;;;;;;;;;;10.50;95.00;;;;;;5093273;28;20006;-75
2023/04/06 09:02:55;;;;;;;;;;;10.70;95.20;;;;;;5094266;28;19993;-74
2023/04/06 09:05:21;;;;;;;;;;;10.70;95.20;;;;;;5093000;28;19916;-73
2023/04/06 09:07:47;;;;;;;;;;;10.70;94.90;;;;;;5093266;28;19965;-73
2023/04/06 09:10:13;;;;;;;;;;;10.70;94.30;;;;;;5094244;28;19962;-73
2023/04/06 09:12:38;;;;;;;;;;;10.70;94.50;;;;;;5093408;28;19913;-76
2023/04/06 09:15:04;;;;;;;;;;;10.70;94.30;;;;;;5092713;28;19908;-73
2023/04/06 09:17:33;;;;;;;;;;;10.80;94.50;;;;;;5100218;28;19908;-72
2023/04/06 09:20:03;;;;;;;;;;;10.90;94.60;;;;;;5104279;28;20263;-73
2023/04/06 09:22:38;;;;;;;;;;;11.10;94.80;;;;;;5103312;28;19969;-73
2023/04/06 09:25:05;;;;;;;;;;;11.20;94.50;;;;;;5094071;28;20062;-73
2023/04/06 09:27:34;;;;;;;;;;;11.20;94.80;;;;;;5093771;28;19909;-73
2023/04/06 09:30:04;;;;;;;;;;;11.30;94.40;;;;;;5093656;28;19912;-74
2023/04/06 09:32:30;;;;;;;;;;;11.40;94.50;;;;;;5092501;28;19912;-74
2023/04/06 09:35:08;;;;;;;;;;;11.30;93.90;;;;;;5093292;28;19930;-74
2023/04/06 09:37:35;;;;;;;;;;;11.30;96.10;;;;;;5093192;28;19911;-74
2023/04/06 09:40:05;;;;;;;;;;;11.20;97.30;;;;;;5092657;28;19908;-74
2023/04/06 09:42:30;;;;;;;;;;;11.20;97.30;;;;;;5091566;28;19915;-74
2023/04/06 09:44:56;;;;;;;;;;;11.20;98.30;;;;;;5094578;28;20305;-74
2023/04/06 09:47:23;;;;;;;;;;;11.00;98.50;;;;;;5096410;28;19908;-74
2023/04/06 09:49:50;;;;;;;;;;;11.00;98.60;;;;;;5096438;28;20398;-74
2023/04/06 09:52:16;;;;;;;;;;;11.00;98.70;;;;;;5096955;28;19908;-77
2023/04/06 09:54:43;;;;;;;;;;;11.00;99.60;;;;;;5096833;28;20391;-74
2023/04/06 09:57:08;;;;;;;;;;;11.00;98.30;;;;;;5095296;28;19960;-76
2023/04/06 09:59:46;;;;;;;;;;;10.90;98.60;;;;;;5096820;28;19912;-73
2023/04/06 10:02:31;;;;;;;;;;;10.90;99.20;;;;;;5095338;28;20038;-73
2023/04/06 10:04:58;;;;;;;;;;;10.80;98.70;;;;;;5093694;28;19962;-73
2023/04/06 10:07:25;;;;;;;;;;;10.80;99.30;;;;;;5094702;28;20434;-73
2023/04/06 10:09:53;;;;;;;;;;;10.80;98.90;;;;;;5097229;28;19919;-73
2023/04/06 10:12:19;;;;;;;;;;;10.80;99.50;;;;;;5095730;28;19954;-74
2023/04/06 10:14:44;;;;;;;;;;;10.90;99.80;;;;;;5093951;28;19919;-73
2023/04/06 10:17:11;;;;;;;;;;;10.90;99.90;;;;;;5094839;28;19912;-72
2023/04/06 10:19:57;;;;;;;;;;;10.90;99.70;;;;;;5096229;28;19912;-73
2023/04/06 10:22:26;;;;;;;;;;;10.70;99.10;;;;;;5094446;28;20011;-73
2023/04/06 10:24:52;;;;;;;;;;;10.70;99.80;;;;;;5095933;28;19916;-73
2023/04/06 10:27:26;;;;;;;;;;;10.70;99.90;;;;;;5096375;28;19915;-73
2023/04/06 10:29:52;;;;;;;;;;;10.80;99.90;;;;;;5096127;28;19908;-74
2023/04/06 10:32:18;;;;;;;;;;;10.80;99.90;;;;;;5096500;28;19915;-74
2023/04/06 10:34:43;;;;;;;;;;;10.80;99.90;;;;;;5095484;28;19991;-77
2023/04/06 10:37:15;;;;;;;;;;;10.90;99.60;;;;;;5095983;28;19912;-73
2023/04/06 10:39:54;;;;;;;;;;;10.90;98.80;;;;;;5095993;28;19908;-73
2023/04/06 10:42:23;;;;;;;;;;;10.90;98.60;;;;;;5096118;28;19987;-73
2023/04/06 10:44:49;;;;;;;;;;;10.90;99.00;;;;;;5094311;28;20439;-73
2023/04/06 10:47:17;;;;;;;;;;;10.90;99.20;;;;;;5095254;28;20162;-74
2023/04/06 10:49:42;;;;;;;;;;;11.10;99.30;;;;;;5096286;28;20408;-73
2023/04/06 10:52:09;;;;;;;;;;;11.20;98.50;;;;;;5094690;28;19908;-73
2023/04/06 10:54:40;;;;;;;;;;;11.10;98.80;;;;;;5095682;28;20357;-73
2023/04/06 10:57:05;;;;;;;;;;;11.10;98.80;;;;;;5096433;28;19908;-74
2023/04/06 10:59:31;;;;;;;;;;;11.20;99.00;;;;;;5096047;28;19916;-73
2023/04/06 11:01:57;;;;;;;;;;;11.10;99.10;;;;;;5094619;28;19915;-73
2023/04/06 11:04:23;;;;;;;;;;;11.20;98.80;;;;;;5095405;28;19915;-74
2023/04/06 11:06:49;;;;;;;;;;;11.20;99.90;;;;;;5095158;28;20164;-73
2023/04/06 11:09:28;;;;;;;;;;;11.10;99.90;;;;;;5095418;28;19912;-74
2023/04/06 11:11:55;;;;;;;;;;;11.10;99.90;;;;;;5094658;28;19930;-74
2023/04/06 11:14:20;;;;;;;;;;;11.00;99.40;;;;;;5095102;28;19912;-75
2023/04/06 11:16:48;;;;;;;;;;;11.00;99.90;;;;;;5095844;28;19958;-73
2023/04/06 11:19:13;;;;;;;;;;;11.10;99.90;;;;;;5095743;28;19951;-73
2023/04/06 11:21:39;;;;;;;;;;;11.10;99.90;;;;;;5095429;28;19920;-73
2023/04/06 11:24:05;;;;;;;;;;;11.20;99.90;;;;;;5094769;28;19916;-73
2023/04/06 11:26:31;;;;;;;;;;;11.10;99.90;;;;;;5095164;28;19982;-73
2023/04/06 11:28:56;;;;;;;;;;;11.20;99.90;;;;;;5092984;28;20185;-73
2023/04/06 11:31:25;;;;;;;;;;;11.20;99.90;;;;;;5095434;28;19935;-73
2023/04/06 11:33:55;;;;;;;;;;;11.20;99.90;;;;;;5095448;28;19915;-74
2023/04/06 11:36:20;;;;;;;;;;;11.20;99.90;;;;;;5094211;28;20396;-73
2023/04/06 11:38:46;;;;;;;;;;;11.20;99.90;;;;;;5094388;28;19908;-73
2023/04/06 11:41:12;;;;;;;;;;;11.10;99.90;;;;;;5094075;28;19983;-73
2023/04/06 11:43:37;;;;;;;;;;;11.10;99.90;;;;;;5093482;28;19908;-73
2023/04/06 11:46:04;;;;;;;;;;;11.20;99.90;;;;;;5094699;28;20007;-74
2023/04/06 11:48:30;;;;;;;;;;;11.30;99.90;;;;;;5094619;28;19912;-74
2023/04/06 11:50:57;;;;;;;;;;;11.30;99.90;;;;;;5095327;28;19909;-74
2023/04/06 11:53:23;;;;;;;;;;;11.30;99.90;;;;;;5093355;28;19915;-74
2023/04/06 11:55:48;;;;;;;;;;;11.50;99.90;;;;;;5094295;28;19908;-74
2023/04/06 11:58:14;;;;;;;;;;;11.40;99.90;;;;;;5093057;28;19991;-73
2023/04/06 12:00:44;;;;;;;;;;;11.40;99.90;;;;;;5094805;28;19967;-73
2023/04/06 12:03:10;;;;;;;;;;;11.50;99.90;;;;;;5093461;28;20408;-78
2023/04/06 12:05:36;;;;;;;;;;;11.50;99.90;;;;;;5094290;28;19937;-73
2023/04/06 12:08:02;;;;;;;;;;;11.40;99.90;;;;;;5092858;28;20347;-73
2023/04/06 12:10:27;;;;;;;;;;;11.40;99.90;;;;;;5093505;28;19944;-74
2023/04/06 12:12:53;;;;;;;;;;;11.50;99.90;;;;;;5093722;28;19934;-73
2023/04/06 12:15:19;;;;;;;;;;;11.50;99.90;;;;;;5095218;28;20278;-73
2023/04/06 12:17:44;;;;;;;;;;;11.60;99.90;;;;;;5094673;28;19908;-74
2023/04/06 12:20:10;;;;;;;;;;;11.50;99.90;;;;;;5094274;28;19977;-74
2023/04/06 12:22:36;;;;;;;;;;;11.50;99.90;;;;;;5094669;28;20365;-74
2023/04/06 12:25:02;;;;;;;;;;;11.50;99.90;;;;;;5093501;28;19924;-74
2023/04/06 12:27:30;;;;;;;;;;;11.50;99.90;;;;;;5092571;28;20056;-74
2023/04/06 12:29:55;;;;;;;;;;;11.60;99.90;;;;;;5094467;28;19984;-73
2023/04/06 12:32:21;;;;;;;;;;;11.60;99.90;;;;;;5093270;28;20241;-73
2023/04/06 12:34:47;;;;;;;;;;;11.60;99.90;;;;;;5093224;28;20286;-74
2023/04/06 12:37:12;;;;;;;;;;;11.60;99.90;;;;;;5094537;28;19908;-75
2023/04/06 12:39:38;;;;;;;;;;;11.60;99.90;;;;;;5094208;28;19912;-73
2023/04/06 12:42:04;;;;;;;;;;;11.60;99.90;;;;;;5094319;28;19908;-73
2023/04/06 12:44:30;;;;;;;;;;;11.70;99.90;;;;;;5094009;28;19915;-73
2023/04/06 12:46:56;;;;;;;;;;;11.70;99.90;;;;;;5094461;28;19908;-74
2023/04/06 12:49:21;;;;;;;;;;;11.80;99.90;;;;;;5093993;28;19911;-73
2023/04/06 12:51:47;;;;;;;;;;;11.80;99.90;;;;;;5092889;28;19908;-74
2023/04/06 12:54:13;;;;;;;;;;;11.80;99.90;;;;;;5092800;28;19995;-73
2023/04/06 12:56:38;;;;;;;;;;;11.80;99.90;;;;;;5093959;28;19908;-73
2023/04/06 12:59:05;;;;;;;;;;;11.80;99.90;;;;;;5092913;28;19915;-74
2023/04/06 13:01:30;;;;;;;;;;;11.80;99.90;;;;;;5093233;28;19936;-73
2023/04/06 13:03:57;;;;;;;;;;;11.90;99.90;;;;;;5093297;28;19908;-74
2023/04/06 13:06:22;;;;;;;;;;;11.80;99.90;;;;;;5093436;28;19912;-73
2023/04/06 13:08:49;;;;;;;;;;;11.70;99.90;;;;;;5092613;28;19908;-73
2023/04/06 13:11:15;;;;;;;;;;;11.80;99.90;;;;;;5093894;28;20044;-73
2023/04/06 13:13:41;;;;;;;;;;;11.80;99.90;;;;;;5092125;28;20385;-76
2023/04/06 13:16:07;;;;;;;;;;;11.80;99.90;;;;;;5093792;28;19975;-74
2023/04/06 13:18:34;;;;;;;;;;;11.80;99.90;;;;;;5093780;28;19916;-73
2023/04/06 13:21:00;;;;;;;;;;;11.80;99.90;;;;;;5097578;28;19992;-73
2023/04/06 13:23:25;;;;;;;;;;;11.80;99.90;;;;;;5097301;28;20380;-74
2023/04/06 13:26:01;;;;;;;;;;;11.90;99.90;;;;;;5095488;28;19912;-74
2023/04/06 13:28:27;;;;;;;;;;;12.00;99.90;;;;;;5096448;28;20445;-74
2023/04/06 13:30:53;;;;;;;;;;;12.10;99.90;;;;;;5095593;28;19948;-74
2023/04/06 13:33:19;;;;;;;;;;;12.10;99.90;;;;;;5097355;28;19912;-75
2023/04/06 13:35:46;;;;;;;;;;;12.10;99.90;;;;;;5096688;28;20400;-73
2023/04/06 13:38:12;;;;;;;;;;;12.00;99.90;;;;;;5097341;28;20314;-74
2023/04/06 13:40:40;;;;;;;;;;;12.00;99.90;;;;;;5096989;28;19934;-74
2023/04/06 13:43:06;;;;;;;;;;;12.00;99.90;;;;;;5096198;28;20286;-74
2023/04/06 13:45:32;;;;;;;;;;;12.00;99.90;;;;;;5096656;28;19912;-73
2023/04/06 13:47:58;;;;;;;;;;;12.00;99.90;;;;;;5098596;28;19935;-78
2023/04/06 13:50:27;;;;;;;;;;;12.00;99.90;;;;;;5096413;28;19908;-74
2023/04/06 13:52:52;;;;;;;;;;;12.00;99.90;;;;;;5096765;28;19928;-74
2023/04/06 13:55:18;;;;;;;;;;;12.00;99.90;;;;;;5097367;28;19908;-73
2023/04/06 13:57:44;;;;;;;;;;;12.00;99.90;;;;;;5100328;28;19912;-73
2023/04/06 14:00:12;;;;;;;;;;;12.00;99.90;;;;;;5100000;28;20374;-73
2023/04/06 14:02:38;;;;;;;;;;;12.00;99.90;;;;;;5101879;28;19908;-74
2023/04/06 14:05:04;;;;;;;;;;;12.10;99.90;;;;;;5102062;28;20333;-73
2023/04/06 14:07:30;;;;;;;;;;;12.10;99.90;;;;;;5100585;28;19912;-74
2023/04/06 14:09:55;;;;;;;;;;;12.10;99.90;;;;;;5101821;28;20294;-73
2023/04/06 14:12:21;;;;;;;;;;;12.10;99.90;;;;;;5099806;28;19938;-72
2023/04/06 14:14:47;;;;;;;;;;;12.00;99.90;;;;;;5098424;28;19915;-73
2023/04/06 14:17:12;;;;;;;;;;;11.90;99.90;;;;;;5097841;28;19911;-73